createdAt,value
2022-09-11T00:01:00.099Z,100.00
2022-09-11T00:03:28.127Z,100.00
2022-09-11T00:05:54.940Z,100.00
2022-09-11T00:08:21.708Z,100.00
2022-09-11T00:10:48.650Z,100.00
2022-09-11T00:13:22.351Z,100.00
2022-09-11T00:15:51.529Z,100.00
2022-09-11T00:18:23.867Z,100.00
2022-09-11T00:20:55.120Z,100.00
2022-09-11T00:23:23.897Z,100.00
2022-09-11T00:25:50.858Z,100.00
2022-09-11T00:28:19.757Z,100.00
2022-09-11T00:30:47.581Z,100.00
2022-09-11T00:33:15.568Z,100.00
2022-09-11T00:35:42.598Z,100.00
2022-09-11T00:38:10.040Z,100.00
2022-09-11T00:40:47.642Z,100.00
2022-09-11T00:43:17.651Z,100.00
2022-09-11T00:45:50.186Z,100.00
2022-09-11T00:48:22.010Z,100.00
2022-09-11T00:50:50.392Z,100.00
2022-09-11T00:53:20.485Z,100.00
2022-09-11T00:55:53.844Z,100.00
2022-09-11T00:58:25.141Z,100.00
2022-09-11T01:00:54.012Z,100.00
2022-09-11T01:03:20.748Z,100.00
2022-09-11T01:05:48.314Z,100.00
2022-09-11T01:08:15.169Z,100.00
2022-09-11T01:10:47.753Z,100.00
2022-09-11T01:13:41.636Z,100.00
2022-09-11T01:16:16.908Z,100.00
2022-09-11T01:19:05.407Z,100.00
2022-09-11T01:21:54.551Z,100.00
2022-09-11T01:24:39.614Z,100.00
2022-09-11T01:27:25.537Z,100.00
2022-09-11T01:30:11.737Z,100.00
2022-09-11T01:32:44.733Z,100.00
2022-09-11T01:35:20.739Z,100.00
2022-09-11T01:38:13.860Z,100.00
2022-09-11T01:40:54.820Z,100.00
2022-09-11T01:43:26.815Z,100.00
2022-09-11T01:45:55.444Z,100.00
2022-09-11T01:48:26.391Z,100.00
2022-09-11T01:50:57.083Z,100.00
2022-09-11T01:53:29.256Z,100.00
2022-09-11T01:56:02.392Z,100.00
2022-09-11T01:58:32.028Z,100.00
2022-09-11T02:01:13.059Z,100.00
2022-09-11T02:03:48.429Z,100.00
2022-09-11T02:06:21.525Z,100.00
2022-09-11T02:08:57.515Z,100.00
2022-09-11T02:11:24.667Z,100.00
2022-09-11T02:14:21.433Z,100.00
2022-09-11T02:16:53.702Z,100.00
2022-09-11T02:19:26.966Z,100.00
2022-09-11T02:21:53.761Z,100.00
2022-09-11T02:24:22.845Z,100.00
2022-09-11T02:26:57.242Z,100.00
2022-09-11T02:29:24.452Z,100.00
2022-09-11T02:31:52.354Z,100.00
2022-09-11T02:34:26.885Z,100.00
2022-09-11T02:37:31.690Z,100.00
2022-09-11T02:40:04.088Z,100.00
2022-09-11T02:42:55.279Z,100.00
2022-09-11T02:45:35.633Z,100.00
2022-09-11T02:48:31.131Z,100.00
2022-09-11T02:51:16.167Z,100.00
2022-09-11T02:54:20.522Z,100.00
2022-09-11T02:56:51.937Z,100.00
2022-09-11T02:59:19.567Z,100.00
2022-09-11T03:01:55.150Z,100.00
2022-09-11T03:04:24.806Z,100.00
2022-09-11T03:06:52.881Z,100.00
2022-09-11T03:09:20.168Z,100.00
2022-09-11T03:11:46.722Z,100.00
2022-09-11T03:14:14.330Z,100.00
2022-09-11T03:16:41.629Z,100.00
2022-09-11T03:19:08.780Z,100.00
2022-09-11T03:21:35.362Z,100.00
2022-09-11T03:24:02.032Z,100.00
2022-09-11T03:26:29.578Z,100.00
2022-09-11T03:28:56.172Z,100.00
2022-09-11T03:31:22.634Z,100.00
2022-09-11T03:33:50.190Z,100.00
2022-09-11T03:36:16.678Z,100.00
2022-09-11T03:38:45.857Z,100.00
2022-09-11T03:41:12.360Z,100.00
2022-09-11T03:43:38.961Z,100.00
2022-09-11T03:46:05.829Z,100.00
2022-09-11T03:48:33.257Z,100.00
2022-09-11T03:50:59.943Z,100.00
2022-09-11T03:53:27.115Z,100.00
2022-09-11T03:55:54.881Z,100.00
2022-09-11T03:58:21.535Z,100.00
2022-09-11T04:00:48.118Z,100.00
2022-09-11T04:03:18.166Z,100.00
2022-09-11T04:05:59.202Z,100.00
2022-09-11T04:08:26.062Z,100.00
2022-09-11T04:11:00.583Z,100.00
2022-09-11T04:13:38.833Z,100.00
2022-09-11T04:16:08.086Z,100.00
2022-09-11T04:18:37.694Z,100.00
2022-09-11T04:21:05.819Z,100.00
2022-09-11T04:23:32.823Z,100.00
2022-09-11T04:25:59.211Z,100.00
2022-09-11T04:28:28.269Z,100.00
2022-09-11T04:30:57.202Z,100.00
2022-09-11T04:33:24.753Z,100.00
2022-09-11T04:35:51.422Z,100.00
2022-09-11T04:38:18.781Z,100.00
2022-09-11T04:40:45.705Z,100.00
2022-09-11T04:43:12.213Z,100.00
2022-09-11T04:45:40.504Z,100.00
2022-09-11T04:48:07.282Z,100.00
2022-09-11T04:50:33.772Z,100.00
2022-09-11T04:53:00.484Z,100.00
2022-09-11T04:55:27.278Z,100.00
2022-09-11T04:57:54.039Z,100.00
2022-09-11T05:00:20.657Z,100.00
2022-09-11T05:02:47.808Z,100.00
2022-09-11T05:05:14.424Z,100.00
2022-09-11T05:07:40.872Z,100.00
2022-09-11T05:10:08.365Z,100.00
2022-09-11T05:12:34.807Z,100.00
2022-09-11T05:15:01.262Z,100.00
2022-09-11T05:17:27.812Z,100.00
2022-09-11T05:19:54.269Z,100.00
2022-09-11T05:22:20.736Z,100.00
2022-09-11T05:24:47.203Z,100.00
2022-09-11T05:27:14.225Z,100.00
2022-09-11T05:29:41.886Z,100.00
2022-09-11T05:32:08.538Z,100.00
2022-09-11T05:34:35.361Z,100.00
2022-09-11T05:37:03.093Z,100.00
2022-09-11T05:39:29.529Z,100.00
2022-09-11T05:41:56.147Z,100.00
2022-09-11T05:44:22.580Z,100.00
2022-09-11T05:46:49.098Z,100.00
2022-09-11T05:49:16.068Z,100.00
2022-09-11T05:51:42.508Z,100.00
2022-09-11T05:54:10.033Z,100.00
2022-09-11T05:56:36.749Z,100.00
2022-09-11T05:59:03.555Z,100.00
2022-09-11T06:01:31.307Z,100.00
2022-09-11T06:03:58.041Z,100.00
2022-09-11T06:06:24.976Z,100.00
2022-09-11T06:08:52.946Z,100.00
2022-09-11T06:11:21.330Z,100.00
2022-09-11T06:13:49.420Z,100.00
2022-09-11T06:16:23.386Z,100.00
2022-09-11T06:18:52.149Z,100.00
2022-09-11T06:21:21.203Z,100.00
2022-09-11T06:23:49.201Z,100.00
2022-09-11T06:26:19.090Z,100.00
2022-09-11T06:28:45.606Z,100.00
2022-09-11T06:31:17.367Z,100.00
2022-09-11T06:33:44.728Z,100.00
2022-09-11T06:36:13.792Z,100.00
2022-09-11T06:38:40.465Z,100.00
2022-09-11T06:41:12.745Z,100.00
2022-09-11T06:43:40.039Z,100.00
2022-09-11T06:46:13.105Z,100.00
2022-09-11T06:48:40.945Z,100.00
2022-09-11T06:51:11.360Z,100.00
2022-09-11T06:53:39.198Z,100.00
2022-09-11T06:56:07.006Z,100.00
2022-09-11T07:01:15.185Z,100.00
2022-09-11T07:03:45.036Z,100.00
2022-09-11T07:06:12.816Z,100.00
2022-09-11T07:08:39.447Z,100.00
2022-09-11T07:11:07.768Z,100.00
2022-09-11T07:13:38.100Z,100.00
2022-09-11T07:16:07.816Z,100.00
2022-09-11T07:18:38.979Z,100.00
2022-09-11T07:21:13.942Z,100.00
2022-09-11T07:23:41.359Z,100.00
2022-09-11T07:26:12.250Z,100.00
2022-09-11T07:28:39.985Z,100.00
2022-09-11T07:31:18.669Z,100.00
2022-09-11T07:33:48.795Z,100.00
2022-09-11T07:36:20.019Z,100.00
2022-09-11T07:38:48.542Z,100.00
2022-09-11T07:41:16.792Z,100.00
2022-09-11T07:43:46.768Z,100.00
2022-09-11T07:46:14.386Z,100.00
2022-09-11T07:48:42.776Z,100.00
2022-09-11T07:51:11.589Z,100.00
2022-09-11T07:53:46.502Z,100.00
2022-09-11T07:56:20.920Z,100.00
2022-09-11T07:58:47.978Z,100.00
2022-09-11T08:01:16.865Z,100.00
2022-09-11T08:03:44.745Z,100.00
2022-09-11T08:06:21.859Z,100.00
2022-09-11T08:08:53.474Z,100.00
2022-09-11T08:11:20.866Z,100.00
2022-09-11T08:13:50.892Z,100.00
2022-09-11T08:16:18.434Z,100.00
2022-09-11T08:18:45.653Z,100.00
2022-09-11T08:21:13.284Z,100.00
2022-09-11T08:23:42.106Z,100.00
2022-09-11T08:26:10.886Z,100.00
2022-09-11T08:28:38.583Z,100.00
2022-09-11T08:31:06.538Z,100.00
2022-09-11T08:33:33.461Z,100.00
2022-09-11T08:36:00.353Z,100.00
2022-09-11T08:38:27.611Z,100.00
2022-09-11T08:40:55.531Z,100.00
2022-09-11T08:43:32.324Z,100.00
2022-09-11T08:46:00.755Z,100.00
2022-09-11T08:48:35.757Z,100.00
2022-09-11T08:51:02.226Z,100.00
2022-09-11T08:53:31.943Z,100.00
2022-09-11T08:56:11.709Z,100.00
2022-09-11T08:59:02.617Z,100.00
2022-09-11T09:01:40.962Z,100.00
2022-09-11T09:04:41.416Z,100.00
2022-09-11T09:07:32.123Z,100.00
2022-09-11T09:10:03.522Z,100.00
2022-09-11T09:12:47.500Z,100.00
2022-09-11T09:15:29.184Z,100.00
2022-09-11T09:18:02.150Z,100.00
2022-09-11T09:20:36.222Z,100.00
2022-09-11T09:23:23.390Z,100.00
2022-09-11T09:25:53.127Z,100.00
2022-09-11T09:28:24.711Z,100.00
2022-09-11T09:30:58.636Z,100.00
2022-09-11T09:33:30.808Z,100.00
2022-09-11T09:36:12.164Z,100.00
2022-09-11T09:38:38.675Z,100.00
2022-09-11T09:41:56.855Z,100.00
2022-09-11T09:44:46.450Z,100.00
2022-09-11T09:47:22.267Z,100.00
2022-09-11T09:49:50.056Z,100.00
2022-09-11T09:52:25.209Z,100.00
2022-09-11T09:55:01.409Z,100.00
2022-09-11T09:57:34.790Z,100.00
2022-09-11T10:00:10.065Z,100.00
2022-09-11T10:02:49.134Z,100.00
2022-09-11T10:05:18.867Z,100.00
2022-09-11T10:07:59.038Z,100.00
2022-09-11T10:10:32.876Z,100.00
2022-09-11T10:13:18.543Z,100.00
2022-09-11T10:15:49.241Z,100.00
2022-09-11T10:18:22.766Z,100.00
2022-09-11T10:20:49.342Z,100.00
2022-09-11T10:23:26.994Z,100.00
2022-09-11T10:25:54.387Z,100.00
2022-09-11T10:28:32.190Z,100.00
2022-09-11T10:31:02.490Z,100.00
2022-09-11T10:33:36.397Z,100.00
2022-09-11T10:36:06.494Z,100.00
2022-09-11T10:38:47.075Z,100.00
2022-09-11T10:41:13.843Z,100.00
2022-09-11T10:43:47.554Z,100.00
2022-09-11T10:46:28.822Z,100.00
2022-09-11T10:49:08.319Z,100.00
2022-09-11T10:51:38.136Z,100.00
2022-09-11T10:54:16.668Z,100.00
2022-09-11T10:56:55.233Z,100.00
2022-09-11T10:59:30.483Z,100.00
2022-09-11T11:01:57.340Z,100.00
2022-09-11T11:04:25.625Z,100.00
2022-09-11T11:07:14.943Z,100.00
2022-09-11T11:09:51.160Z,100.00
2022-09-11T11:12:45.446Z,100.00
2022-09-11T11:15:30.250Z,100.00
2022-09-11T11:18:14.024Z,100.00
2022-09-11T11:21:00.022Z,100.00
2022-09-11T11:23:45.539Z,100.00
2022-09-11T11:26:32.432Z,100.00
2022-09-11T11:29:37.939Z,100.00
2022-09-11T11:32:48.944Z,100.00
2022-09-11T11:35:37.264Z,100.00
2022-09-11T11:38:25.467Z,100.00
2022-09-11T11:40:56.754Z,100.00
2022-09-11T11:43:31.047Z,100.00
2022-09-11T11:46:30.196Z,100.00
2022-09-11T11:49:02.986Z,100.00
2022-09-11T11:51:48.233Z,100.00
2022-09-11T11:54:22.225Z,100.00
2022-09-11T11:57:01.476Z,100.00
2022-09-11T11:59:40.163Z,100.00
2022-09-11T12:02:09.650Z,100.00
2022-09-11T12:05:01.056Z,100.00
2022-09-11T12:07:34.757Z,100.00
2022-09-11T12:10:02.765Z,100.00
2022-09-11T12:12:33.854Z,100.00
2022-09-11T12:15:18.185Z,100.00
2022-09-11T12:17:47.442Z,100.00
2022-09-11T12:20:29.918Z,100.00
2022-09-11T12:22:56.564Z,100.00
2022-09-11T12:25:22.884Z,100.00
2022-09-11T12:27:56.392Z,100.00
2022-09-11T12:30:25.668Z,100.00
2022-09-11T12:32:57.235Z,100.00
2022-09-11T12:35:40.239Z,100.00
2022-09-11T12:38:06.572Z,100.00
2022-09-11T12:40:38.968Z,100.00
2022-09-11T12:43:30.650Z,100.00
2022-09-11T12:45:57.160Z,100.00
2022-09-11T12:48:33.475Z,100.00
2022-09-11T12:51:00.852Z,100.00
2022-09-11T12:53:35.550Z,100.00
2022-09-11T12:56:07.349Z,100.00
2022-09-11T12:58:40.936Z,100.00
2022-09-11T13:01:10.487Z,99.38
2022-09-11T13:03:39.787Z,98.71
2022-09-11T13:06:11.817Z,99.36
2022-09-11T13:08:48.568Z,96.41
2022-09-11T13:11:39.794Z,94.50
2022-09-11T13:14:28.750Z,94.30
2022-09-11T13:16:56.990Z,96.20
2022-09-11T13:19:24.065Z,94.65
2022-09-11T13:21:53.230Z,92.96
2022-09-11T13:24:25.481Z,93.51
2022-09-11T13:26:59.693Z,91.75
2022-09-11T13:29:33.186Z,92.91
2022-09-11T13:32:05.229Z,93.31
2022-09-11T13:34:35.769Z,92.26
2022-09-11T13:37:12.445Z,92.18
2022-09-11T13:39:43.897Z,90.33
2022-09-11T13:42:16.232Z,92.62
2022-09-11T13:44:47.013Z,90.16
2022-09-11T13:47:22.682Z,88.62
2022-09-11T13:49:52.299Z,88.81
2022-09-11T13:52:24.381Z,89.93
2022-09-11T13:54:54.036Z,90.14
2022-09-11T13:57:23.387Z,86.66
2022-09-11T13:59:52.032Z,88.25
2022-09-11T14:02:18.432Z,85.05
2022-09-11T14:04:47.305Z,84.63
2022-09-11T14:07:23.366Z,81.69
2022-09-11T14:10:08.227Z,81.12
2022-09-11T14:12:47.546Z,82.43
2022-09-11T14:15:24.639Z,83.20
2022-09-11T14:17:51.203Z,82.75
2022-09-11T14:20:23.139Z,80.74
2022-09-11T14:22:54.494Z,80.43
2022-09-11T14:25:23.469Z,80.40
2022-09-11T14:27:50.483Z,80.89
2022-09-11T14:30:24.409Z,81.39
2022-09-11T14:33:22.710Z,80.06
2022-09-11T14:35:50.363Z,82.15
2022-09-11T14:38:20.691Z,78.06
2022-09-11T14:40:57.122Z,80.04
2022-09-11T14:43:30.145Z,80.06
2022-09-11T14:45:57.779Z,78.29
2022-09-11T14:48:28.939Z,77.79
2022-09-11T14:50:55.571Z,78.98
2022-09-11T14:53:28.059Z,78.64
2022-09-11T14:55:56.485Z,81.38
2022-09-11T14:58:24.757Z,78.28
2022-09-11T15:00:51.219Z,75.73
2022-09-11T15:03:18.237Z,76.94
2022-09-11T15:05:46.679Z,78.84
2022-09-11T15:08:14.252Z,79.08
2022-09-11T15:10:41.424Z,80.03
2022-09-11T15:13:08.009Z,81.54
2022-09-11T15:15:35.011Z,82.68
2022-09-11T15:18:01.435Z,83.71
2022-09-11T15:20:27.938Z,85.27
2022-09-11T15:22:56.036Z,84.97
2022-09-11T15:25:22.944Z,85.34
2022-09-11T15:27:51.986Z,85.33
2022-09-11T15:30:20.602Z,84.30
2022-09-11T15:32:48.372Z,84.30
2022-09-11T15:35:17.868Z,85.25
2022-09-11T15:37:46.730Z,84.15
2022-09-11T15:40:13.926Z,84.78
2022-09-11T15:42:40.607Z,84.27
2022-09-11T15:45:07.914Z,82.40
2022-09-11T15:47:34.468Z,83.75
2022-09-11T15:50:01.864Z,84.21
2022-09-11T15:52:29.552Z,85.17
2022-09-11T15:54:56.671Z,84.29
2022-09-11T15:57:23.151Z,84.52
2022-09-11T15:59:51.639Z,84.39
2022-09-11T16:02:20.562Z,83.76
2022-09-11T16:04:51.640Z,83.60
2022-09-11T16:07:20.088Z,83.58
2022-09-11T16:09:46.567Z,83.64
2022-09-11T16:12:14.413Z,84.09
2022-09-11T16:14:41.460Z,84.12
2022-09-11T16:17:08.457Z,83.62
2022-09-11T16:19:35.689Z,85.00
2022-09-11T16:22:04.011Z,84.59
2022-09-11T16:24:33.175Z,84.35
2022-09-11T16:27:01.607Z,84.42
2022-09-11T16:29:44.033Z,85.00
2022-09-11T16:32:27.925Z,85.35
2022-09-11T16:34:55.779Z,86.05
2022-09-11T16:37:22.225Z,86.19
2022-09-11T16:39:50.736Z,86.48
2022-09-11T16:42:21.062Z,86.91
2022-09-11T16:44:48.016Z,87.28
2022-09-11T16:47:14.988Z,87.17
2022-09-11T16:50:03.282Z,87.78
2022-09-11T16:52:28.237Z,88.05
2022-09-11T16:54:54.906Z,88.27
2022-09-11T16:57:21.331Z,88.02
2022-09-11T16:59:48.370Z,88.72
2022-09-11T17:02:15.095Z,88.33
2022-09-11T17:04:41.501Z,88.84
2022-09-11T17:07:08.078Z,89.38
2022-09-11T17:09:34.507Z,89.05
2022-09-11T17:12:02.629Z,88.96
2022-09-11T17:14:30.187Z,89.41
2022-09-11T17:16:56.677Z,89.36
2022-09-11T17:19:23.168Z,89.91
2022-09-11T17:21:50.857Z,89.81
2022-09-11T17:24:21.519Z,90.34
2022-09-11T17:26:50.900Z,90.93
2022-09-11T17:29:19.477Z,90.90
2022-09-11T17:31:46.495Z,90.75
2022-09-11T17:34:14.177Z,91.25
2022-09-11T17:36:40.703Z,92.55
2022-09-11T17:39:07.341Z,92.65
2022-09-11T17:41:33.868Z,92.78
2022-09-11T17:44:00.364Z,93.01
2022-09-11T17:46:27.004Z,93.95
2022-09-11T17:48:53.584Z,94.08
2022-09-11T17:51:25.278Z,95.00
2022-09-11T17:53:57.605Z,95.38
2022-09-11T17:56:27.299Z,97.24
2022-09-11T17:58:56.672Z,100.00
2022-09-11T18:01:25.207Z,100.00
2022-09-11T18:03:53.488Z,100.00
2022-09-11T18:06:28.993Z,100.00
2022-09-11T18:09:01.706Z,100.00
2022-09-11T18:11:31.963Z,100.00
2022-09-11T18:14:00.250Z,100.00
2022-09-11T18:16:27.116Z,100.00
2022-09-11T18:18:54.385Z,100.00
2022-09-11T18:21:20.989Z,100.00
2022-09-11T18:23:47.440Z,100.00
2022-09-11T18:26:22.770Z,100.00
2022-09-11T18:28:50.447Z,100.00
2022-09-11T18:31:16.972Z,100.00
2022-09-11T18:33:44.440Z,100.00
2022-09-11T18:36:13.464Z,100.00
2022-09-11T18:38:40.474Z,100.00
2022-09-11T18:41:07.234Z,100.00
2022-09-11T18:43:33.796Z,100.00
2022-09-11T18:46:03.211Z,100.00
2022-09-11T18:48:29.701Z,100.00
2022-09-11T18:50:56.198Z,100.00
2022-09-11T18:53:23.391Z,100.00
2022-09-11T18:56:05.155Z,100.00
2022-09-11T18:58:33.810Z,100.00
2022-09-11T19:01:05.802Z,100.00
2022-09-11T19:03:32.331Z,100.00
2022-09-11T19:06:10.220Z,100.00
2022-09-11T19:08:37.547Z,100.00
2022-09-11T19:11:16.513Z,100.00
2022-09-11T19:13:45.353Z,100.00
2022-09-11T19:16:13.010Z,100.00
2022-09-11T19:18:39.934Z,100.00
2022-09-11T19:21:24.770Z,100.00
2022-09-11T19:23:57.656Z,100.00
2022-09-11T19:26:32.946Z,100.00
2022-09-11T19:29:00.267Z,100.00
2022-09-11T19:31:29.827Z,100.00
2022-09-11T19:33:57.968Z,100.00
2022-09-11T19:36:26.761Z,100.00
2022-09-11T19:39:04.101Z,100.00
2022-09-11T19:41:39.551Z,100.00
2022-09-11T19:44:07.967Z,100.00
2022-09-11T19:46:35.735Z,100.00
2022-09-11T19:49:03.781Z,100.00
2022-09-11T19:51:32.469Z,100.00
2022-09-11T19:54:00.688Z,100.00
2022-09-11T19:56:28.291Z,100.00
2022-09-11T19:58:55.427Z,100.00
2022-09-11T20:01:24.289Z,100.00
2022-09-11T20:03:53.195Z,100.00
2022-09-11T20:06:22.073Z,100.00
2022-09-11T20:08:49.891Z,100.00
2022-09-11T20:11:19.750Z,100.00
2022-09-11T20:13:46.358Z,100.00
2022-09-11T20:16:18.214Z,100.00
2022-09-11T20:18:44.822Z,100.00
2022-09-11T20:21:17.694Z,100.00
2022-09-11T20:23:45.452Z,100.00
2022-09-11T20:26:21.060Z,100.00
2022-09-11T20:28:52.464Z,100.00
2022-09-11T20:31:21.842Z,100.00
2022-09-11T20:33:49.549Z,100.00
2022-09-11T20:36:17.534Z,100.00
2022-09-11T20:38:44.744Z,100.00
2022-09-11T20:41:14.619Z,100.00
2022-09-11T20:43:41.921Z,100.00
2022-09-11T20:46:09.120Z,100.00
2022-09-11T20:48:35.979Z,100.00
2022-09-11T20:51:04.282Z,100.00
2022-09-11T20:53:30.786Z,100.00
2022-09-11T20:56:05.450Z,100.00
2022-09-11T20:58:32.524Z,100.00
2022-09-11T21:01:00.697Z,100.00
2022-09-11T21:03:28.331Z,100.00
2022-09-11T21:05:56.089Z,100.00
2022-09-11T21:08:23.026Z,100.00
2022-09-11T21:10:49.734Z,100.00
2022-09-11T21:13:16.725Z,100.00
2022-09-11T21:15:44.403Z,100.00
2022-09-11T21:18:12.162Z,100.00
2022-09-11T21:20:38.735Z,100.00
2022-09-11T21:23:06.164Z,100.00
2022-09-11T21:25:37.649Z,100.00
2022-09-11T21:28:04.109Z,100.00
2022-09-11T21:30:30.784Z,100.00
2022-09-11T21:32:57.242Z,100.00
2022-09-11T21:35:23.722Z,100.00
2022-09-11T21:37:50.187Z,100.00
2022-09-11T21:40:16.742Z,100.00
2022-09-11T21:42:43.486Z,100.00
2022-09-11T21:45:10.503Z,100.00
2022-09-11T21:47:36.957Z,100.00
2022-09-11T21:50:07.105Z,100.00
2022-09-11T21:52:33.998Z,100.00
2022-09-11T21:55:00.545Z,100.00
2022-09-11T21:57:28.871Z,100.00
2022-09-11T21:59:56.138Z,100.00
2022-09-11T22:02:24.820Z,100.00
2022-09-11T22:04:54.904Z,100.00
2022-09-11T22:07:22.880Z,100.00
2022-09-11T22:09:49.631Z,100.00
2022-09-11T22:12:16.338Z,100.00
2022-09-11T22:14:44.876Z,100.00
2022-09-11T22:17:11.951Z,100.00
2022-09-11T22:19:38.648Z,100.00
2022-09-11T22:22:06.694Z,100.00
2022-09-11T22:24:33.272Z,100.00
2022-09-11T22:26:59.858Z,100.00
2022-09-11T22:29:26.428Z,100.00
2022-09-11T22:31:53.115Z,100.00
2022-09-11T22:34:19.592Z,100.00
2022-09-11T22:36:46.364Z,100.00
2022-09-11T22:39:12.862Z,100.00
2022-09-11T22:41:39.375Z,100.00
2022-09-11T22:44:05.786Z,100.00
2022-09-11T22:46:32.493Z,100.00
2022-09-11T22:48:59.027Z,100.00
2022-09-11T22:51:25.461Z,100.00
2022-09-11T22:53:51.967Z,100.00
2022-09-11T22:56:18.408Z,100.00
2022-09-11T22:58:45.138Z,100.00
2022-09-11T23:01:21.010Z,100.00
2022-09-11T23:03:52.006Z,100.00
2022-09-11T23:06:39.722Z,100.00
2022-09-11T23:09:09.227Z,100.00
2022-09-11T23:11:35.935Z,100.00
2022-09-11T23:14:02.366Z,100.00
2022-09-11T23:16:29.898Z,100.00
2022-09-11T23:18:59.172Z,100.00
2022-09-11T23:21:26.688Z,100.00
2022-09-11T23:23:55.236Z,100.00
2022-09-11T23:26:22.554Z,100.00
2022-09-11T23:28:49.469Z,100.00
2022-09-11T23:31:21.122Z,100.00
2022-09-11T23:33:48.392Z,100.00
2022-09-11T23:36:16.099Z,100.00
2022-09-11T23:38:46.655Z,100.00
2022-09-11T23:41:14.232Z,100.00
2022-09-11T23:43:41.472Z,100.00
2022-09-11T23:46:08.226Z,100.00
2022-09-11T23:48:34.870Z,100.00
2022-09-11T23:51:01.782Z,100.00
2022-09-11T23:53:31.180Z,100.00
2022-09-11T23:55:58.239Z,100.00
2022-09-11T23:58:25.009Z,100.00
